Terminal Aerodrome Forecast
Issued by NWS

Home | Current Version | Previous Version | Text Only | Print | Product List | Glossary On
Versions: 1 2 3 4 5 6 7 8 9 10 11 12 13
000
FTUS44 KEPZ 271100
TAFTCS
TAF
KTCS 271125Z 2712/2812 36010KT P6SM BKN050 OVC100
     FM272000 02015G25KT P6SM VCSH SCT050 BKN100
     FM280300 03010G18KT P6SM SCT080 BKN100=

USA.gov is the U.S. government's official web portal to all federal, state and local government web resources and services.